METAR Data
IDs: Format: Raw Decoded Include TAF

Data at: 1410 UTC 16 Aug 2022

KO32 161355Z AUTO 10006KT 7SM CLR 23/08 A2978 RMK AO2 T02290083
KO32 161335Z AUTO 09005KT 8SM CLR 22/08 A2978 RMK AO2 T02180082
KO32 161315Z AUTO 12007KT 7SM CLR 22/09 A2977 RMK AO2 T02150091
KO32 161255Z AUTO 10006KT 9SM CLR 23/09 A2977 RMK AO2 T02260087
KO32 161235Z AUTO 10005KT 9SM CLR 21/08 A2977 RMK AO2 T02080083
KO32 161215Z AUTO 10005KT 10SM CLR 20/07 A2976 RMK AO2 T02020073
KO32 161155Z AUTO 11005KT 10SM CLR 19/09 A2976 RMK AO2 T01860088
KO32 161135Z AUTO 09003KT 10SM CLR 19/10 A2976 RMK AO2 T01930100
KO32 161115Z AUTO 00000KT 9SM CLR 19/10 A2976 RMK AO2 T01940095
KO32 161055Z AUTO 00000KT 10SM CLR 19/09 A2976 RMK AO2 T01940091
KO32 161035Z AUTO 00000KT 10SM CLR 19/10 A2976 RMK AO2 T01900098
KO32 161015Z AUTO 00000KT 10SM CLR 21/08 A2976 RMK AO2 T02050082
KO32 160955Z AUTO 08003KT 10SM CLR 21/08 A2976 RMK AO2 T02130076
KO32 160935Z AUTO 09003KT 10SM CLR 21/08 A2976 RMK AO2 T02140076
KO32 160915Z AUTO 07005KT 9SM CLR 22/09 A2977 RMK AO2 T02180086
KO32 160855Z AUTO 00000KT 9SM CLR 22/09 A2977 RMK AO2 T02210093
KO32 160835Z AUTO 00000KT 10SM CLR 23/09 A2977 RMK AO2 T02270091
KO32 160815Z AUTO 35003KT 9SM CLR 23/10 A2977 RMK AO2 T02310100
KO32 160755Z AUTO 03003KT 9SM CLR 23/11 A2977 RMK AO2 T02300112
KO32 160735Z AUTO 28004KT 9SM CLR 22/12 A2977 RMK AO2 T02150119
KO32 160715Z AUTO 25003KT 9SM CLR 24/10 A2977 RMK AO2 T02390098
KO32 160655Z AUTO 00000KT 10SM CLR 25/09 A2977 RMK AO2 T02550089
KO32 160635Z AUTO 22003KT 9SM CLR 23/11 A2976 RMK AO2 T02330114
KO32 160615Z AUTO 27003KT 9SM CLR 24/13 A2977 RMK AO2 T02440125
KO32 160555Z AUTO 30004KT 9SM SCT170 24/14 A2976 RMK AO2 T02400135
KO32 160535Z AUTO 32003KT 8SM SCT170 25/12 A2976 RMK AO2 T02460121
KO32 160515Z AUTO 33005KT 9SM CLR 25/11 A2976 RMK AO2 T02540115
KO32 160455Z AUTO 33003KT 10SM CLR 25/12 A2976 RMK AO2 T02480117
KO32 160435Z AUTO 35006KT 9SM CLR 29/05 A2976 RMK AO2 T02850054
KO32 160415Z AUTO 35007KT 9SM CLR 29/06 A2975 RMK AO2 T02900064
KO32 160355Z AUTO 34005KT 9SM CLR 29/08 A2975 RMK AO2 T02920077
KO32 160335Z AUTO 33004KT 9SM CLR 29/11 A2974 RMK AO2 T02910106
KO32 160315Z AUTO 31005KT 8SM CLR 31/08 A2974 RMK AO2 T03080076
KO32 160255Z AUTO 30005KT 7SM CLR 31/10 A2974 RMK AO2 T03070098
KO32 160235Z AUTO 30006KT 7SM CLR 32/11 A2973 RMK AO2 T03200110
KO32 160215Z AUTO 30005KT 7SM CLR 34/11 A2973 RMK AO2 T03380110
KO32 160155Z AUTO 29005KT 8SM CLR 35/11 A2973 RMK AO2 T03510111
KO32 160135Z AUTO 31006KT 9SM CLR 37/08 A2973 RMK AO2 T03720082
KO32 160115Z AUTO 29006KT 9SM CLR 37/10 A2973 RMK AO2 T03720096
KO32 160055Z AUTO 30006KT 10SM CLR 38/08 A2973 RMK AO2 T03780078
KO32 160035Z AUTO 29007KT 9SM CLR 38/07 A2973 RMK AO2 T03840072
KO32 160015Z AUTO 29006KT 9SM CLR 39/09 A2973 RMK AO2 T03850086
KO32 152355Z AUTO 31007KT 9SM CLR 39/05 A2974 RMK AO2 T03930049
KO32 152335Z AUTO 32006KT 9SM CLR 39/05 A2974 RMK AO2 T03900051
KO32 152315Z AUTO 29006KT 9SM CLR 39/07 A2975 RMK AO2 T03880067
KO32 152255Z AUTO 28008KT 9SM CLR 38/08 A2975 RMK AO2 T03850082
KO32 152235Z AUTO 32006KT 9SM CLR 38/07 A2976 RMK AO2 T03790073
KO32 152215Z AUTO 32005KT 9SM CLR 38/07 A2977 RMK AO2 T03750074
KO32 152155Z AUTO 26005KT 9SM CLR 37/09 A2978 RMK AO2 T03700094
KO32 152135Z AUTO 00000KT 10SM CLR 36/10 A2979 RMK AO2 T03650105
KO32 152115Z AUTO 27004KT 9SM CLR 36/10 A2979 RMK AO2 T03620103
KO32 152055Z AUTO 00000KT 9SM CLR 35/09 A2980 RMK AO2 T03520092
KO32 152035Z AUTO 27004KT 9SM CLR 35/12 A2981 RMK AO2 T03460120
KO32 152015Z AUTO 27003KT 9SM CLR 34/11 A2981 RMK AO2 T03390114
KO32 151955Z AUTO 26005KT 9SM CLR 34/13 A2982 RMK AO2 T03350132
KO32 151935Z AUTO 24004KT 9SM CLR 34/14 A2983 RMK AO2 T03370136
KO32 151915Z AUTO 00000KT 9SM CLR 33/12 A2983 RMK AO2 T03280122
KO32 151855Z AUTO 21004KT 9SM CLR 32/11 A2984 RMK AO2 T03210114
KO32 151835Z AUTO VRB03KT 9SM CLR 32/11 A2984 RMK AO2 T03190107
KO32 151815Z AUTO VRB05KT 10SM CLR 31/11 A2984 RMK AO2 T03120106
KO32 151755Z AUTO 14006KT 10SM CLR 31/10 A2985 RMK AO2 T03140103
KO32 151735Z AUTO 16008KT 9SM CLR 31/11 A2985 RMK AO2 T03070111
KO32 151715Z AUTO 19006KT 9SM CLR 29/12 A2985 RMK AO2 T02950118
KO32 151655Z AUTO VRB03KT 9SM CLR 28/12 A2985 RMK AO2 T02850117
KO32 151635Z AUTO 17006KT 9SM CLR 28/11 A2985 RMK AO2 T02810108
KO32 151615Z AUTO 16006KT 9SM CLR 28/12 A2985 RMK AO2 T02790117
KO32 151555Z AUTO 15007KT 9SM CLR 27/11 A2985 RMK AO2 T02730109
KO32 151535Z AUTO 14006KT 10SM CLR 27/10 A2985 RMK AO2 T02670100
KO32 151515Z AUTO 10004KT 9SM CLR 25/11 A2984 RMK AO2 T02500105
KO32 151455Z AUTO 10004KT 9SM CLR 24/10 A2984 RMK AO2 T02380101
KO32 151435Z AUTO 09005KT 8SM CLR 23/10 A2984 RMK AO2 T02290099
KO32 151415Z AUTO 10004KT 8SM CLR 22/09 A2984 RMK AO2 T02190088
KO32 151355Z AUTO 09004KT 9SM CLR 20/08 A2984 RMK AO2 T01980081
KO32 151335Z AUTO 10005KT 10SM CLR 18/08 A2983 RMK AO2 T01830077
KO32 151315Z AUTO 00000KT 10SM CLR 18/08 A2983 RMK AO2 T01780084
KO32 151255Z AUTO 00000KT 10SM CLR 17/10 A2983 RMK AO2 T01730096
KO32 151235Z AUTO 00000KT 10SM CLR 17/10 A2983 RMK AO2 T01670100
KO32 151215Z AUTO 12003KT 10SM CLR 19/08 A2983 RMK AO2 T01850082
KO32 151155Z AUTO 00000KT 10SM CLR 19/09 A2983 RMK AO2 T01890086
KO32 151135Z AUTO 00000KT 10SM CLR 19/09 A2983 RMK AO2 T01930095
KO32 151115Z AUTO 00000KT 10SM CLR 20/08 A2982 RMK AO2 T01990085
KO32 151055Z AUTO 00000KT 10SM CLR 19/09 A2982 RMK AO2 T01900086
KO32 151035Z AUTO 00000KT 10SM CLR 20/08 A2982 RMK AO2 T02000084
KO32 151015Z AUTO 36003KT 10SM CLR 21/07 A2982 RMK AO2 T02140070
KO32 150955Z AUTO 01004KT 10SM CLR 22/07 A2982 RMK AO2 T02190067
KO32 150935Z AUTO 34004KT 10SM CLR 22/07 A2983 RMK AO2 T02180069
KO32 150915Z AUTO 34004KT 10SM CLR 22/07 A2983 RMK AO2 T02200067
KO32 150855Z AUTO 35005KT 10SM CLR 23/07 A2983 RMK AO2 T02260067
KO32 150835Z AUTO 35007KT 10SM CLR 22/07 A2983 RMK AO2 T02210071
KO32 150815Z AUTO 36006KT 10SM CLR 23/07 A2984 RMK AO2 T02300070
KO32 150755Z AUTO 36005KT 10SM CLR 23/09 A2984 RMK AO2 T02260092
KO32 150735Z AUTO 33004KT 10SM CLR 21/11 A2984 RMK AO2 T02050111
KO32 150715Z AUTO 30003KT 10SM CLR 21/12 A2984 RMK AO2 T02080123
KO32 150655Z AUTO 28004KT 10SM CLR 21/12 A2984 RMK AO2 T02070124
KO32 150635Z AUTO 30003KT 10SM CLR 23/09 A2984 RMK AO2 T02300094
KO32 150615Z AUTO 33005KT 10SM CLR 25/08 A2984 RMK AO2 T02540078
KO32 150555Z AUTO 35003KT 10SM CLR 26/08 A2984 RMK AO2 T02630076
KO32 150535Z AUTO 34003KT 10SM CLR 26/08 A2984 RMK AO2 T02640076
KO32 150515Z AUTO 35004KT 10SM CLR 26/09 A2984 RMK AO2 T02620088
KO32 150455Z AUTO 34005KT 10SM CLR 27/07 A2984 RMK AO2 T02670074
KO32 150435Z AUTO 34006KT 10SM CLR 28/08 A2983 RMK AO2 T02760079
KO32 150415Z AUTO 32003KT 10SM CLR 26/11 A2982 RMK AO2 T02630112
KO32 150355Z AUTO 32004KT 10SM CLR 29/08 A2982 RMK AO2 T02890080
KO32 150335Z AUTO 30005KT 9SM CLR 28/10 A2982 RMK AO2 T02820096
KO32 150315Z AUTO 30006KT 9SM CLR 29/10 A2981 RMK AO2 T02860100
KO32 150255Z AUTO 30006KT 9SM CLR 30/10 A2981 RMK AO2 T02960102
KO32 150235Z AUTO 30007KT 8SM CLR 32/09 A2981 RMK AO2 T03190092
KO32 150215Z AUTO 31007KT 8SM CLR 34/09 A2980 RMK AO2 T03390087